Time;durP1;ratioP1;P1;durP2;ratioP2;P2;SDS_P1;SDS_P2;PMS_P1;PMS_P2;Temp;Humidity;BMP_temperature;BMP_pressure;BME280_temperature;BME280_humidity;BME280_pressure;Samples;Min_cycle;Max_cycle;Signal;HPM_P1;HPM_P2
2022/08/02 00:00:06;;;;;;;3.35;2.70;;;21.50;51.50;;;;;;5000419;28;21940;-42
2022/08/02 00:02:33;;;;;;;4.70;2.17;;;21.50;51.60;;;;;;5001191;28;20446;-44
2022/08/02 00:05:00;;;;;;;3.80;2.63;;;21.50;51.60;;;;;;5003062;28;20409;-47
2022/08/02 00:07:27;;;;;;;2.88;2.22;;;21.50;51.70;;;;;;5001115;28;20060;-43
2022/08/02 00:09:56;;;;;;;4.22;2.45;;;21.40;51.80;;;;;;5001822;28;20065;-42
2022/08/02 00:12:23;;;;;;;3.03;2.42;;;21.40;51.90;;;;;;5000821;28;20051;-41
2022/08/02 00:14:50;;;;;;;3.63;2.60;;;21.30;51.90;;;;;;5003173;28;20069;-44
2022/08/02 00:17:17;;;;;;;4.03;2.60;;;21.30;52.00;;;;;;5002641;28;20058;-45
2022/08/02 00:19:44;;;;;;;4.63;2.47;;;21.30;52.00;;;;;;5002188;28;20069;-43
2022/08/02 00:22:12;;;;;;;3.72;2.63;;;21.30;52.10;;;;;;5002221;28;20065;-42
2022/08/02 00:24:39;;;;;;;3.53;2.38;;;21.20;52.00;;;;;;5001144;28;20069;-46
2022/08/02 00:27:07;;;;;;;5.45;2.85;;;21.20;52.00;;;;;;5001892;28;20058;-43
2022/08/02 00:29:35;;;;;;;5.75;2.47;;;21.20;52.00;;;;;;5000797;28;20061;-42
2022/08/02 00:32:03;;;;;;;4.38;2.70;;;21.10;52.40;;;;;;5000928;28;20053;-42
2022/08/02 00:34:30;;;;;;;4.38;2.28;;;21.10;52.20;;;;;;5002469;28;20062;-42
2022/08/02 00:36:57;;;;;;;5.25;2.20;;;21.00;52.10;;;;;;5000940;28;20502;-43
2022/08/02 00:39:24;;;;;;;2.88;2.20;;;21.00;52.10;;;;;;5000863;28;20057;-43
2022/08/02 00:41:53;;;;;;;3.30;1.90;;;21.00;52.20;;;;;;5002068;28;20057;-42
2022/08/02 00:44:21;;;;;;;3.45;1.80;;;20.90;52.40;;;;;;5001033;28;20057;-43
2022/08/02 00:46:49;;;;;;;4.78;2.10;;;20.90;52.50;;;;;;5002108;28;20053;-43
2022/08/02 00:49:16;;;;;;;3.00;2.20;;;20.90;52.60;;;;;;5003124;28;20058;-43
2022/08/02 00:51:43;;;;;;;3.55;2.38;;;20.90;52.60;;;;;;5000361;28;20061;-41
2022/08/02 00:54:10;;;;;;;4.10;2.60;;;20.90;52.70;;;;;;5002704;28;20181;-43
2022/08/02 00:56:37;;;;;;;3.95;2.50;;;20.90;52.80;;;;;;5002527;28;20521;-42
2022/08/02 00:59:05;;;;;;;5.13;2.28;;;20.90;52.80;;;;;;5001276;28;20061;-42
2022/08/02 01:01:40;;;;;;;4.32;2.50;;;20.80;52.80;;;;;;4997830;28;20053;-43
2022/08/02 01:04:08;;;;;;;3.03;2.20;;;20.80;53.00;;;;;;5001246;28;20421;-43
2022/08/02 01:06:36;;;;;;;3.33;2.65;;;20.80;52.90;;;;;;5001159;28;20425;-42
2022/08/02 01:09:05;;;;;;;3.20;2.80;;;20.80;52.90;;;;;;5002841;28;20494;-43
2022/08/02 01:11:33;;;;;;;3.15;2.25;;;20.80;53.00;;;;;;5000100;28;20060;-47
2022/08/02 01:14:04;;;;;;;4.25;2.55;;;20.80;53.00;;;;;;5001356;28;20061;-46
2022/08/02 01:16:39;;;;;;;2.83;2.10;;;20.70;53.00;;;;;;5001806;28;20057;-42
2022/08/02 01:19:18;;;;;;;2.25;2.00;;;20.70;53.00;;;;;;5001260;28;20054;-44
2022/08/02 01:21:59;;;;;;;3.75;2.63;;;20.70;53.00;;;;;;4999786;28;20073;-45
2022/08/02 01:24:48;;;;;;;4.00;2.38;;;20.70;53.00;;;;;;5002098;28;20050;-44
2022/08/02 01:27:29;;;;;;;3.45;2.47;;;20.60;53.00;;;;;;4999947;28;20506;-42
2022/08/02 01:30:00;;;;;;;3.13;2.15;;;20.60;53.10;;;;;;5000124;28;20607;-45
2022/08/02 01:32:33;;;;;;;2.60;2.22;;;20.60;53.10;;;;;;5002413;28;20058;-43
2022/08/02 01:35:07;;;;;;;3.37;2.23;;;20.60;53.20;;;;;;5001778;28;20069;-42
2022/08/02 01:37:39;;;;;;;3.38;1.98;;;20.60;53.20;;;;;;5000600;28;20514;-42
2022/08/02 01:40:10;;;;;;;2.60;2.28;;;20.50;53.20;;;;;;4997167;28;20533;-43
2022/08/02 01:42:40;;;;;;;2.88;2.10;;;20.50;53.20;;;;;;4998918;28;20054;-44
2022/08/02 01:45:11;;;;;;;2.53;1.98;;;20.50;53.30;;;;;;5001126;28;20505;-42
2022/08/02 01:47:40;;;;;;;3.67;2.08;;;20.50;53.40;;;;;;5001127;28;20061;-48
2022/08/02 01:50:10;;;;;;;2.63;2.15;;;20.50;53.50;;;;;;4999550;28;20054;-43
2022/08/02 01:52:42;;;;;;;3.13;2.10;;;20.40;53.50;;;;;;5001634;28;20050;-44
2022/08/02 01:55:13;;;;;;;3.83;2.03;;;20.40;53.50;;;;;;5002421;28;20528;-45
2022/08/02 01:57:46;;;;;;;2.70;2.17;;;20.40;53.50;;;;;;5000601;28;20516;-44
2022/08/02 02:00:16;;;;;;;4.13;2.45;;;20.30;53.50;;;;;;5000581;28;20520;-44
2022/08/02 02:02:46;;;;;;;3.88;2.10;;;20.40;53.60;;;;;;5000568;28;20069;-45
2022/08/02 02:05:16;;;;;;;2.65;2.33;;;20.30;53.60;;;;;;4998489;28;20517;-43
2022/08/02 02:07:45;;;;;;;2.92;2.40;;;20.30;53.70;;;;;;4989255;28;20068;-48
2022/08/02 02:10:15;;;;;;;3.72;2.28;;;20.30;53.80;;;;;;4984468;28;20054;-42
2022/08/02 02:12:46;;;;;;;3.25;2.28;;;20.20;53.80;;;;;;4976985;28;20057;-42
2022/08/02 02:15:15;;;;;;;3.53;2.15;;;20.20;53.80;;;;;;4980159;28;20065;-43
2022/08/02 02:17:45;;;;;;;3.72;2.30;;;20.20;53.80;;;;;;4983170;28;20058;-44
2022/08/02 02:20:15;;;;;;;3.45;2.00;;;20.20;53.90;;;;;;4980997;28;20494;-47
2022/08/02 02:22:43;;;;;;;3.45;2.20;;;20.20;53.90;;;;;;4981296;28;20054;-42
2022/08/02 02:25:12;;;;;;;2.42;1.92;;;20.10;54.00;;;;;;4983848;28;20065;-42
2022/08/02 02:27:46;;;;;;;5.47;2.30;;;20.10;54.00;;;;;;4986334;28;20065;-46
2022/08/02 02:30:16;;;;;;;3.50;2.03;;;20.10;54.20;;;;;;4984381;28;20061;-42
2022/08/02 02:32:45;;;;;;;3.63;2.17;;;20.10;54.20;;;;;;4983255;28;20054;-42
2022/08/02 02:35:16;;;;;;;2.88;2.28;;;20.10;54.20;;;;;;4985476;28;20067;-42
2022/08/02 02:37:44;;;;;;;2.00;1.77;;;20.10;54.30;;;;;;4985185;28;20058;-42
2022/08/02 02:40:13;;;;;;;2.40;2.13;;;20.00;54.30;;;;;;4985456;28;20053;-44
2022/08/02 02:42:42;;;;;;;2.35;2.13;;;20.00;54.40;;;;;;4984526;28;20062;-45
2022/08/02 02:45:11;;;;;;;5.53;2.30;;;20.00;54.50;;;;;;4982096;28;20073;-44
2022/08/02 02:47:40;;;;;;;3.10;2.10;;;20.00;54.50;;;;;;4982271;28;20073;-44
2022/08/02 02:50:09;;;;;;;3.33;2.10;;;20.00;54.50;;;;;;4982984;28;20050;-42
2022/08/02 02:52:37;;;;;;;2.47;2.25;;;20.00;54.50;;;;;;4984132;28;20066;-43
2022/08/02 02:55:06;;;;;;;3.55;2.17;;;20.00;54.50;;;;;;4982181;28;20054;-45
2022/08/02 02:57:34;;;;;;;2.55;1.90;;;20.00;54.50;;;;;;4984823;28;20541;-44
2022/08/02 03:00:02;;;;;;;2.92;2.60;;;19.90;54.50;;;;;;4984350;28;20046;-45
2022/08/02 03:02:30;;;;;;;3.60;1.98;;;19.90;54.50;;;;;;4980636;28;20046;-42
2022/08/02 03:05:01;;;;;;;3.70;2.22;;;19.90;54.60;;;;;;4985721;28;20054;-44
2022/08/02 03:07:28;;;;;;;4.28;2.40;;;19.90;54.60;;;;;;4983172;28;20061;-47
2022/08/02 03:09:56;;;;;;;3.72;2.60;;;19.90;54.60;;;;;;4985440;28;20062;-44
2022/08/02 03:12:24;;;;;;;2.88;2.13;;;19.80;54.60;;;;;;4984169;28;20069;-43
2022/08/02 03:14:52;;;;;;;3.08;2.30;;;19.80;54.60;;;;;;4984061;28;20868;-43
2022/08/02 03:17:19;;;;;;;4.78;2.83;;;19.80;54.70;;;;;;4984544;28;20062;-47
2022/08/02 03:19:46;;;;;;;3.58;2.45;;;19.80;54.80;;;;;;4981669;28;20058;-44
2022/08/02 03:22:15;;;;;;;4.40;2.67;;;19.80;54.80;;;;;;4976047;28;20391;-43
2022/08/02 03:24:42;;;;;;;4.28;2.70;;;19.70;54.90;;;;;;4984040;28;20065;-43
2022/08/02 03:27:09;;;;;;;5.05;3.15;;;19.70;54.90;;;;;;4982731;28;20087;-45
2022/08/02 03:29:37;;;;;;;3.28;2.88;;;19.70;54.90;;;;;;4980172;28;20066;-45
2022/08/02 03:32:05;;;;;;;4.20;2.85;;;19.70;54.90;;;;;;4983695;28;20422;-42
2022/08/02 03:34:32;;;;;;;4.15;2.92;;;19.70;54.90;;;;;;4983139;28;20069;-45
2022/08/02 03:37:01;;;;;;;4.40;3.20;;;19.70;55.00;;;;;;4984707;28;20422;-43
2022/08/02 03:39:32;;;;;;;3.67;3.05;;;19.60;55.00;;;;;;4975182;28;20058;-45
2022/08/02 03:42:01;;;;;;;5.75;3.13;;;19.60;55.00;;;;;;4981345;28;20061;-43
2022/08/02 03:44:28;;;;;;;5.60;3.22;;;19.60;55.00;;;;;;4974908;28;20514;-42
2022/08/02 03:46:56;;;;;;;3.33;3.03;;;19.60;55.00;;;;;;4981960;28;20050;-45
2022/08/02 03:49:23;;;;;;;4.30;3.10;;;19.60;55.00;;;;;;4984823;28;20046;-42
2022/08/02 03:51:51;;;;;;;4.90;3.90;;;19.60;55.00;;;;;;4980576;28;20420;-43
2022/08/02 03:54:19;;;;;;;6.18;4.07;;;19.50;55.00;;;;;;4983175;28;20054;-44
2022/08/02 03:56:48;;;;;;;5.45;3.65;;;19.50;55.00;;;;;;4982286;28;20058;-44
2022/08/02 03:59:15;;;;;;;4.10;3.30;;;19.50;55.10;;;;;;4982483;28;20054;-44
2022/08/02 04:01:42;;;;;;;4.25;3.33;;;19.50;55.10;;;;;;4979233;28;20446;-43
2022/08/02 04:04:10;;;;;;;6.22;3.30;;;19.50;55.20;;;;;;4983921;28;20065;-42
2022/08/02 04:06:37;;;;;;;6.03;3.42;;;19.40;55.20;;;;;;4980396;28;20065;-42
2022/08/02 04:09:04;;;;;;;4.28;3.17;;;19.40;55.30;;;;;;4983400;28;20414;-44
2022/08/02 04:11:31;;;;;;;5.93;3.67;;;19.40;55.30;;;;;;4980022;28;20054;-43
2022/08/02 04:14:02;;;;;;;4.53;3.33;;;19.40;55.40;;;;;;4979268;28;20062;-45
2022/08/02 04:16:39;;;;;;;4.05;3.28;;;19.40;55.40;;;;;;4977278;28;21325;-43
2022/08/02 04:19:09;;;;;;;6.35;3.47;;;19.40;55.50;;;;;;4976996;28;20065;-42
2022/08/02 04:21:38;;;;;;;3.83;3.42;;;19.40;55.40;;;;;;4979505;28;20490;-47
2022/08/02 04:24:08;;;;;;;3.83;3.40;;;19.40;55.40;;;;;;4980829;28;20050;-43
2022/08/02 04:26:37;;;;;;;6.32;3.70;;;19.40;55.40;;;;;;4981308;28;20066;-43
2022/08/02 04:29:06;;;;;;;5.15;4.25;;;19.30;55.50;;;;;;4977323;28;20050;-47
2022/08/02 04:31:34;;;;;;;4.85;3.80;;;19.30;55.60;;;;;;4976350;28;20058;-44
2022/08/02 04:34:01;;;;;;;4.20;3.65;;;19.30;55.50;;;;;;4983063;28;20062;-48
2022/08/02 04:36:29;;;;;;;10.38;6.75;;;19.30;55.60;;;;;;4983259;28;20065;-43
2022/08/02 04:38:56;;;;;;;6.88;4.85;;;19.30;55.60;;;;;;4984112;28;20058;-42
2022/08/02 04:41:23;;;;;;;5.72;3.85;;;19.30;55.60;;;;;;4976362;28;20054;-43
2022/08/02 04:43:51;;;;;;;5.82;4.50;;;19.30;55.60;;;;;;4980084;28;20840;-41
2022/08/02 04:46:19;;;;;;;5.65;4.25;;;19.30;55.70;;;;;;4981855;28;20061;-42
2022/08/02 04:48:47;;;;;;;6.68;4.32;;;19.30;55.80;;;;;;4981998;28;20054;-42
2022/08/02 04:51:14;;;;;;;5.57;4.30;;;19.20;55.80;;;;;;4981636;28;20418;-43
2022/08/02 04:53:41;;;;;;;6.90;4.32;;;19.30;56.00;;;;;;4979301;28;20158;-42
2022/08/02 04:56:08;;;;;;;11.18;4.65;;;19.30;56.00;;;;;;4982635;28;20054;-45
2022/08/02 04:58:35;;;;;;;4.03;3.55;;;19.30;56.10;;;;;;4981081;28;20062;-43
2022/08/02 05:01:03;;;;;;;4.97;4.07;;;19.30;56.10;;;;;;4978952;28;20050;-42
2022/08/02 05:03:32;;;;;;;5.97;4.40;;;19.30;56.20;;;;;;4979694;28;20046;-44
2022/08/02 05:06:00;;;;;;;6.18;4.78;;;19.30;56.30;;;;;;4981396;28;20069;-42
2022/08/02 05:08:28;;;;;;;7.93;4.38;;;19.30;56.30;;;;;;4980780;28;20046;-42
2022/08/02 05:10:56;;;;;;;5.57;4.28;;;19.30;56.40;;;;;;4980927;28;20058;-45
2022/08/02 05:13:23;;;;;;;5.40;4.50;;;19.30;56.40;;;;;;4979384;28;20525;-42
2022/08/02 05:15:51;;;;;;;6.18;4.70;;;19.30;56.40;;;;;;4982475;28;20498;-43
2022/08/02 05:18:18;;;;;;;7.18;4.90;;;19.30;56.40;;;;;;4982661;28;20054;-43
2022/08/02 05:20:48;;;;;;;4.90;4.35;;;19.30;56.40;;;;;;4981288;28;20051;-42
2022/08/02 05:23:15;;;;;;;4.70;4.15;;;19.40;56.50;;;;;;4980754;28;20054;-43
2022/08/02 05:25:43;;;;;;;5.47;4.50;;;19.40;56.50;;;;;;4981170;28;20487;-46
2022/08/02 05:28:10;;;;;;;6.32;4.75;;;19.30;56.50;;;;;;4979988;28;20057;-42
2022/08/02 05:30:37;;;;;;;6.43;5.30;;;19.40;56.60;;;;;;4978078;28;20512;-41
2022/08/02 05:33:04;;;;;;;6.80;4.78;;;19.40;56.70;;;;;;4980893;28;20422;-44
2022/08/02 05:35:32;;;;;;;6.78;5.40;;;19.40;56.80;;;;;;4983298;28;20058;-44
2022/08/02 05:38:01;;;;;;;8.10;5.38;;;19.40;57.00;;;;;;4983465;28;20065;-43
2022/08/02 05:40:29;;;;;;;5.63;4.90;;;19.40;57.10;;;;;;4978699;28;20055;-44
2022/08/02 05:42:56;;;;;;;7.00;5.05;;;19.50;57.30;;;;;;4980684;28;20050;-42
2022/08/02 05:45:23;;;;;;;6.63;4.80;;;19.50;57.50;;;;;;4981391;28;20058;-44
2022/08/02 05:47:51;;;;;;;5.85;4.78;;;19.50;57.50;;;;;;4983157;28;20055;-43
2022/08/02 05:50:19;;;;;;;6.10;4.60;;;19.60;57.70;;;;;;4980591;28;20050;-44
2022/08/02 05:52:51;;;;;;;5.20;4.38;;;19.60;57.70;;;;;;4981386;28;20081;-42
2022/08/02 05:55:28;;;;;;;6.65;5.18;;;19.60;57.90;;;;;;4981900;28;20058;-43
2022/08/02 05:58:03;;;;;;;5.45;4.10;;;19.70;58.20;;;;;;4981705;28;20069;-41
2022/08/02 06:00:32;;;;;;;10.02;4.80;;;19.70;58.20;;;;;;4983136;28;20118;-42
2022/08/02 06:03:15;;;;;;;6.45;4.60;;;19.80;58.20;;;;;;4980675;28;20059;-47
2022/08/02 06:05:51;;;;;;;5.47;4.90;;;19.90;58.40;;;;;;4984443;28;20254;-45
2022/08/02 06:08:20;;;;;;;5.15;4.30;;;20.00;58.40;;;;;;4981058;28;20062;-42
2022/08/02 06:10:51;;;;;;;6.28;4.90;;;20.00;58.30;;;;;;4980812;28;20050;-44
2022/08/02 06:13:20;;;;;;;5.45;4.55;;;20.10;58.50;;;;;;4981497;28;20057;-43
2022/08/02 06:15:51;;;;;;;18.42;10.63;;;20.20;58.50;;;;;;4981273;28;20062;-42
2022/08/02 06:18:19;;;;;;;20.23;12.07;;;20.30;58.70;;;;;;4986284;28;20062;-45
2022/08/02 06:20:50;;;;;;;10.98;7.25;;;20.30;58.60;;;;;;4982645;28;20042;-45
2022/08/02 06:23:21;;;;;;;9.52;6.63;;;20.40;58.70;;;;;;4985650;28;20054;-45
2022/08/02 06:25:50;;;;;;;7.18;4.97;;;20.50;58.70;;;;;;4977079;28;20062;-42
2022/08/02 06:28:20;;;;;;;8.38;4.70;;;20.50;58.80;;;;;;4979560;28;20509;-44
2022/08/02 06:30:47;;;;;;;5.68;3.88;;;20.60;58.60;;;;;;4982448;28;20058;-44
2022/08/02 06:33:14;;;;;;;7.55;4.90;;;20.60;58.50;;;;;;4983285;28;20514;-42
2022/08/02 06:35:46;;;;;;;6.53;4.70;;;20.70;58.60;;;;;;4984421;28;20058;-44
2022/08/02 06:38:19;;;;;;;8.18;5.35;;;20.80;58.70;;;;;;4983055;28;20062;-46
2022/08/02 06:40:55;;;;;;;5.27;4.37;;;20.80;58.80;;;;;;4985623;28;20074;-43
2022/08/02 06:43:29;;;;;;;5.28;4.30;;;20.90;58.70;;;;;;4984465;28;20073;-43
2022/08/02 06:45:56;;;;;;;5.07;4.00;;;21.00;58.70;;;;;;4986791;28;20495;-43
2022/08/02 06:48:23;;;;;;;6.72;4.03;;;21.00;58.60;;;;;;4985749;28;20054;-46
2022/08/02 06:50:51;;;;;;;4.85;3.67;;;21.10;58.70;;;;;;4985435;28;20061;-45
2022/08/02 06:53:18;;;;;;;6.90;4.13;;;21.20;58.90;;;;;;4984065;28;20077;-44
2022/08/02 06:55:45;;;;;;;5.32;4.28;;;21.20;58.90;;;;;;4985696;28;20495;-44
2022/08/02 06:58:14;;;;;;;13.40;4.28;;;21.30;58.80;;;;;;4984531;28;20069;-43
2022/08/02 07:00:42;;;;;;;5.72;4.00;;;21.40;58.70;;;;;;4985490;28;20055;-43
2022/08/02 07:03:10;;;;;;;6.22;4.15;;;21.50;58.70;;;;;;4985579;28;20055;-42
2022/08/02 07:05:37;;;;;;;4.80;3.40;;;21.50;58.60;;;;;;4985128;28;20442;-42
2022/08/02 07:08:05;;;;;;;6.45;3.33;;;21.60;58.50;;;;;;4985390;28;20058;-44
2022/08/02 07:10:32;;;;;;;4.85;2.92;;;21.70;58.40;;;;;;4984183;28;20105;-45
2022/08/02 07:12:59;;;;;;;6.72;2.80;;;21.80;58.10;;;;;;4985597;28;20138;-45
2022/08/02 07:15:28;;;;;;;4.10;2.50;;;21.90;57.90;;;;;;4985429;28;20051;-42
2022/08/02 07:17:55;;;;;;;5.63;3.25;;;21.90;57.80;;;;;;4985697;28;20054;-44
2022/08/02 07:20:22;;;;;;;6.60;2.95;;;22.00;57.80;;;;;;4984811;28;20510;-44
2022/08/02 07:22:49;;;;;;;2.88;2.53;;;22.10;57.60;;;;;;4985229;28;20509;-43
2022/08/02 07:25:17;;;;;;;5.72;2.72;;;22.20;57.50;;;;;;4984283;28;20487;-43
2022/08/02 07:27:44;;;;;;;4.40;2.45;;;22.30;57.60;;;;;;4983661;28;20054;-45
2022/08/02 07:30:12;;;;;;;3.65;2.42;;;22.30;57.40;;;;;;4983478;28;20494;-42
2022/08/02 07:32:40;;;;;;;2.97;2.38;;;22.40;57.10;;;;;;4984364;28;20062;-42
2022/08/02 07:35:08;;;;;;;3.08;2.40;;;22.50;56.90;;;;;;4982459;28;20498;-44
2022/08/02 07:37:37;;;;;;;2.65;2.10;;;22.60;56.60;;;;;;4984516;28;20061;-42
2022/08/02 07:40:06;;;;;;;4.45;2.10;;;22.70;56.50;;;;;;4982732;28;22430;-45
2022/08/02 07:42:33;;;;;;;2.15;1.92;;;22.80;56.10;;;;;;4984191;28;20054;-43
2022/08/02 07:45:00;;;;;;;4.60;1.65;;;22.90;55.90;;;;;;4984933;28;20051;-44
2022/08/02 07:47:27;;;;;;;2.70;1.80;;;22.90;55.70;;;;;;4985543;28;20513;-43
2022/08/02 07:49:56;;;;;;;4.50;1.95;;;23.00;55.60;;;;;;4983033;28;20691;-43
2022/08/02 07:52:23;;;;;;;5.75;2.33;;;23.10;55.30;;;;;;4983018;28;20046;-42
2022/08/02 07:54:50;;;;;;;3.25;1.83;;;23.20;55.00;;;;;;4982098;28;20054;-44
2022/08/02 07:57:19;;;;;;;1.67;1.58;;;23.20;54.50;;;;;;4980162;28;20104;-43
2022/08/02 07:59:47;;;;;;;4.20;1.65;;;23.40;54.30;;;;;;4980619;28;20046;-42
2022/08/02 08:02:14;;;;;;;3.60;2.00;;;23.40;53.90;;;;;;4984354;28;20395;-43
2022/08/02 08:04:41;;;;;;;2.13;1.50;;;23.50;53.80;;;;;;4984044;28;20108;-44
2022/08/02 08:07:10;;;;;;;3.05;1.50;;;23.60;53.70;;;;;;4985306;28;20066;-43
2022/08/02 08:09:39;;;;;;;2.22;1.65;;;23.70;53.40;;;;;;4981538;28;20065;-42
2022/08/02 08:12:06;;;;;;;4.10;1.63;;;23.70;53.10;;;;;;4983199;28;20062;-43
2022/08/02 08:14:33;;;;;;;1.52;1.30;;;23.80;52.80;;;;;;4982064;28;20058;-41
2022/08/02 08:17:01;;;;;;;3.83;1.70;;;23.90;52.70;;;;;;4981639;28;20046;-45
2022/08/02 08:19:28;;;;;;;1.33;1.23;;;24.00;52.50;;;;;;4984463;28;20050;-42
2022/08/02 08:21:55;;;;;;;4.43;1.52;;;24.10;51.50;;;;;;4983445;28;20518;-43
2022/08/02 08:24:23;;;;;;;4.32;1.70;;;24.10;50.60;;;;;;4984008;28;20061;-45
2022/08/02 08:26:51;;;;;;;2.60;1.30;;;24.20;49.70;;;;;;4982091;28;20797;-46
2022/08/02 08:29:18;;;;;;;2.95;1.35;;;24.20;50.00;;;;;;4980089;28;20046;-45
2022/08/02 08:31:45;;;;;;;2.47;1.15;;;24.30;50.00;;;;;;4976626;28;20047;-45
2022/08/02 08:34:12;;;;;;;2.60;1.13;;;24.30;49.60;;;;;;4980224;28;20412;-43
2022/08/02 08:36:40;;;;;;;5.00;1.52;;;24.40;49.20;;;;;;4983409;28;20061;-44
2022/08/02 08:39:07;;;;;;;3.08;1.35;;;24.40;49.00;;;;;;4982895;28;20058;-41
2022/08/02 08:41:36;;;;;;;3.45;1.65;;;24.40;48.70;;;;;;4982242;28;20050;-43
2022/08/02 08:44:04;;;;;;;3.55;1.30;;;24.50;48.40;;;;;;4979057;28;20054;-44
2022/08/02 08:46:33;;;;;;;4.43;2.00;;;24.50;48.50;;;;;;4981719;28;20499;-46
2022/08/02 08:49:02;;;;;;;2.22;1.23;;;24.60;48.40;;;;;;4984207;28;20054;-45
2022/08/02 08:51:33;;;;;;;1.60;1.00;;;24.60;48.40;;;;;;4976045;28;20069;-41
2022/08/02 08:54:03;;;;;;;2.67;1.40;;;24.70;48.40;;;;;;4982916;28;20767;-42
2022/08/02 08:56:33;;;;;;;2.22;1.45;;;24.70;48.10;;;;;;4982219;28;20050;-44
2022/08/02 08:59:03;;;;;;;1.60;1.15;;;24.80;47.70;;;;;;4980941;28;20057;-45
2022/08/02 09:01:30;;;;;;;1.50;1.40;;;24.80;47.40;;;;;;4981387;28;20057;-42
2022/08/02 09:03:58;;;;;;;1.75;1.20;;;24.90;47.50;;;;;;4982137;28;20069;-43
2022/08/02 09:06:25;;;;;;;3.33;1.50;;;25.00;47.20;;;;;;4981905;28;20077;-45
2022/08/02 09:08:53;;;;;;;2.63;1.15;;;25.00;46.90;;;;;;4980674;28;20046;-42
2022/08/02 09:11:26;;;;;;;3.40;1.50;;;25.10;47.00;;;;;;4981812;28;20050;-42
2022/08/02 09:13:54;;;;;;;1.63;1.40;;;25.10;46.80;;;;;;4980031;28;20050;-43
2022/08/02 09:16:31;;;;;;;1.70;1.33;;;25.20;46.40;;;;;;4983160;28;20062;-43
2022/08/02 09:19:00;;;;;;;1.23;1.08;;;25.30;46.10;;;;;;4983239;28;20054;-44
2022/08/02 09:21:36;;;;;;;2.70;1.40;;;25.40;46.10;;;;;;4980952;28;20047;-42
2022/08/02 09:24:14;;;;;;;1.40;1.20;;;25.40;45.60;;;;;;4979722;28;20073;-44
2022/08/02 09:26:42;;;;;;;2.05;1.40;;;25.40;46.10;;;;;;4983564;28;20398;-43
2022/08/02 09:29:10;;;;;;;2.95;1.13;;;25.50;46.10;;;;;;4979802;28;20084;-45
2022/08/02 09:31:39;;;;;;;2.40;1.50;;;25.60;45.80;;;;;;4980778;28;20051;-42
2022/08/02 09:34:08;;;;;;;1.50;1.13;;;25.60;45.30;;;;;;4978848;28;20509;-42
2022/08/02 09:36:40;;;;;;;1.98;1.15;;;25.70;45.70;;;;;;4984894;28;20057;-44
2022/08/02 09:39:09;;;;;;;4.53;1.33;;;25.70;45.40;;;;;;4986689;28;20053;-44
2022/08/02 09:41:39;;;;;;;1.33;1.13;;;25.80;45.50;;;;;;4986846;28;20042;-42
2022/08/02 09:44:08;;;;;;;1.40;1.20;;;25.80;45.50;;;;;;4984156;28;20062;-46
2022/08/02 09:46:37;;;;;;;2.08;1.40;;;25.90;45.40;;;;;;4985735;28;20486;-43
2022/08/02 09:49:08;;;;;;;2.88;1.80;;;25.90;45.10;;;;;;4986122;28;20062;-46
2022/08/02 09:51:38;;;;;;;2.78;1.33;;;26.00;45.30;;;;;;4986509;28;20510;-43
2022/08/02 09:54:07;;;;;;;7.85;1.63;;;26.00;45.30;;;;;;4984676;28;20050;-44
2022/08/02 09:56:45;;;;;;;2.47;1.50;;;26.00;45.50;;;;;;4985315;28;20061;-44
2022/08/02 09:59:14;;;;;;;3.35;1.85;;;26.10;45.30;;;;;;4984238;28;20055;-43
2022/08/02 10:01:42;;;;;;;2.33;1.40;;;26.20;45.30;;;;;;4985338;28;20114;-44
2022/08/02 10:04:12;;;;;;;8.45;2.00;;;26.20;45.00;;;;;;4985564;28;20058;-44
2022/08/02 10:06:41;;;;;;;2.60;1.60;;;26.30;45.00;;;;;;4986894;28;20069;-48
2022/08/02 10:09:09;;;;;;;4.40;1.80;;;26.40;44.90;;;;;;4986438;28;20438;-42
2022/08/02 10:11:36;;;;;;;2.53;1.55;;;26.40;44.90;;;;;;4983819;28;20525;-45
2022/08/02 10:14:05;;;;;;;2.88;1.70;;;26.50;44.80;;;;;;4978635;28;20065;-44
2022/08/02 10:16:35;;;;;;;3.22;1.92;;;26.60;45.00;;;;;;4978417;28;20061;-45
2022/08/02 10:19:03;;;;;;;3.80;1.92;;;26.70;45.00;;;;;;4981326;28;20069;-46
2022/08/02 10:21:36;;;;;;;2.42;1.50;;;26.70;44.30;;;;;;4981278;28;20062;-42
2022/08/02 10:24:06;;;;;;;1.73;1.27;;;26.80;44.30;;;;;;4974831;28;20398;-44
2022/08/02 10:26:34;;;;;;;1.58;1.48;;;26.90;44.30;;;;;;4983616;28;20061;-46
2022/08/02 10:29:02;;;;;;;2.05;1.50;;;27.00;43.80;;;;;;4981391;28;20058;-43
2022/08/02 10:31:35;;;;;;;2.17;1.48;;;27.00;43.20;;;;;;4979367;28;20426;-42
2022/08/02 10:34:06;;;;;;;4.10;2.08;;;27.10;43.30;;;;;;4984078;28;20058;-42
2022/08/02 10:36:37;;;;;;;1.45;1.27;;;27.20;43.40;;;;;;4983919;28;20414;-42
2022/08/02 10:39:05;;;;;;;1.92;1.40;;;27.30;43.10;;;;;;4981531;28;20050;-42
2022/08/02 10:41:43;;;;;;;3.15;1.58;;;27.30;43.00;;;;;;4984462;28;20074;-43
2022/08/02 10:44:20;;;;;;;3.08;1.65;;;27.40;43.00;;;;;;4982677;28;20218;-45
2022/08/02 10:46:48;;;;;;;3.40;1.50;;;27.40;42.30;;;;;;4983826;28;20065;-42
2022/08/02 10:49:17;;;;;;;1.95;1.45;;;27.50;42.90;;;;;;4981539;28;20062;-43
2022/08/02 10:52:05;;;;;;;2.95;1.40;;;27.60;43.00;;;;;;4979545;28;20054;-42
2022/08/02 10:54:36;;;;;;;2.58;1.50;;;27.70;42.20;;;;;;4983611;28;20054;-41
2022/08/02 10:57:14;;;;;;;2.30;1.40;;;27.70;41.60;;;;;;4973757;28;20061;-44
2022/08/02 10:59:42;;;;;;;1.23;1.10;;;27.80;42.10;;;;;;4968095;28;20062;-42
2022/08/02 11:02:11;;;;;;;3.50;1.60;;;27.90;42.00;;;;;;4977397;28;20061;-43
2022/08/02 11:05:00;;;;;;;3.00;1.48;;;27.90;42.00;;;;;;4981808;28;20065;-42
2022/08/02 11:07:35;;;;;;;2.03;1.35;;;28.00;41.80;;;;;;4974687;28;20046;-44
2022/08/02 11:10:44;;;;;;;2.30;1.50;;;28.10;41.60;;;;;;4972204;28;20054;-44
2022/08/02 11:13:13;;;;;;;4.10;1.77;;;28.10;41.40;;;;;;4977197;28;20505;-43
2022/08/02 11:15:57;;;;;;;1.90;1.30;;;28.10;41.70;;;;;;4985783;28;20498;-42
2022/08/02 11:19:04;;;;;;;2.85;1.13;;;28.20;41.60;;;;;;4966311;28;20055;-43
2022/08/02 11:21:33;;;;;;;1.83;1.55;;;28.20;41.70;;;;;;4973161;28;20050;-44
2022/08/02 11:24:28;;;;;;;4.47;1.42;;;28.30;41.50;;;;;;4980350;28;20418;-45
2022/08/02 11:26:56;;;;;;;1.83;1.40;;;28.40;41.40;;;;;;4975714;28;20061;-44
2022/08/02 11:29:35;;;;;;;1.88;1.40;;;28.40;41.10;;;;;;4969734;28;20495;-47
2022/08/02 11:32:03;;;;;;;1.20;1.10;;;28.50;41.10;;;;;;4970472;28;20509;-42
2022/08/02 11:34:32;;;;;;;3.22;1.40;;;28.50;40.50;;;;;;4972004;28;20062;-43
2022/08/02 11:37:00;;;;;;;6.30;1.40;;;28.50;40.10;;;;;;4984419;28;20069;-44
2022/08/02 11:39:28;;;;;;;2.17;1.42;;;28.60;40.40;;;;;;4982021;28;20062;-43
2022/08/02 11:41:58;;;;;;;1.50;1.40;;;28.70;40.20;;;;;;4984389;28;20065;-43
2022/08/02 11:44:26;;;;;;;3.05;1.33;;;28.70;40.10;;;;;;4982017;28;20050;-46
2022/08/02 11:46:55;;;;;;;4.32;1.50;;;28.80;40.10;;;;;;4985244;28;20061;-42
2022/08/02 11:49:23;;;;;;;1.90;1.50;;;28.90;40.00;;;;;;4982352;28;20061;-45
2022/08/02 11:51:59;;;;;;;3.13;1.33;;;29.00;39.50;;;;;;4982498;28;20058;-43
2022/08/02 11:54:30;;;;;;;3.03;1.20;;;29.10;38.90;;;;;;4983522;28;20054;-47
2022/08/02 11:57:14;;;;;;;5.60;1.30;;;29.10;39.10;;;;;;4983736;28;20062;-43
2022/08/02 11:59:43;;;;;;;1.88;1.30;;;29.20;39.30;;;;;;4981505;28;20065;-45
2022/08/02 12:02:12;;;;;;;6.80;4.75;;;29.30;38.80;;;;;;4984919;28;20062;-42
2022/08/02 12:04:40;;;;;;;7.18;2.28;;;29.30;37.90;;;;;;4983797;28;20073;-44
2022/08/02 12:07:08;;;;;;;1.77;1.50;;;29.40;37.50;;;;;;4982166;28;20396;-43
2022/08/02 12:09:37;;;;;;;2.00;1.27;;;29.40;37.20;;;;;;4981450;28;20062;-43
2022/08/02 12:12:05;;;;;;;4.95;1.30;;;29.40;37.30;;;;;;4982652;28;20058;-42
2022/08/02 12:14:41;;;;;;;3.38;1.48;;;29.30;36.50;;;;;;4979898;28;20062;-42
2022/08/02 12:19:53;;;;;;;1.23;1.13;;;29.30;37.00;;;;;;4987140;28;20057;-45
2022/08/02 12:22:24;;;;;;;3.65;1.50;;;29.40;37.70;;;;;;4964268;28;20515;-42
2022/08/02 12:24:55;;;;;;;2.22;1.42;;;29.40;37.60;;;;;;4976613;28;20494;-49
2022/08/02 12:27:30;;;;;;;1.55;1.10;;;29.40;36.90;;;;;;4976595;28;20046;-45
2022/08/02 12:30:03;;;;;;;1.45;1.27;;;29.40;36.90;;;;;;4976618;28;20418;-42
2022/08/02 12:32:30;;;;;;;2.10;1.47;;;29.40;36.40;;;;;;4977725;28;20503;-45
2022/08/02 12:35:07;;;;;;;1.88;1.20;;;29.40;36.40;;;;;;4977009;28;20062;-42
2022/08/02 12:37:35;;;;;;;2.92;1.30;;;29.50;36.40;;;;;;4983649;28;20046;-44
2022/08/02 12:40:21;;;;;;;2.65;1.23;;;29.50;36.50;;;;;;4981331;28;20061;-44
2022/08/02 12:42:49;;;;;;;1.77;1.30;;;29.50;35.90;;;;;;4982914;28;20418;-47
2022/08/02 12:45:17;;;;;;;2.40;1.35;;;29.60;36.40;;;;;;4980286;28;20058;-42
2022/08/02 12:47:47;;;;;;;3.42;1.13;;;29.60;36.00;;;;;;4983062;28;20418;-43
2022/08/02 12:50:17;;;;;;;2.75;1.50;;;29.70;36.20;;;;;;4969490;28;20046;-44
2022/08/02 12:52:44;;;;;;;1.55;1.00;;;29.70;36.00;;;;;;4972796;28;20490;-43
2022/08/02 12:55:16;;;;;;;1.67;1.20;;;29.80;36.00;;;;;;4969652;28;20062;-44
2022/08/02 12:57:53;;;;;;;1.88;1.40;;;29.80;36.10;;;;;;4976807;28;20050;-47
2022/08/02 13:00:27;;;;;;;2.60;1.45;;;29.90;34.70;;;;;;4973447;28;20057;-44